Minnesota Lake, Minnesota
Current Conditions -  °F | °C
As of 6:54 PM on Wednesday 22 Oct 2014 (Local Time) from KACQ Reporting Station
Scattered Clouds Scattered Clouds  
Wind Chill: 13°   Ceiling: Unl
Heat Index: 13°   Visibility: 10mi
Dew Point:   Wind: 15mph
Humidity: 51%   Direction: 140°SE
Pressure: 30.07"   Gusts: 22mph
Location:  43.84°N, 93.83°W
Report Text: KACQ 222354Z AUTO 14013G19KT 10SM SCT065 13/03 A3007 RMK AO2
Loading
Personal Weather Stations






























Interactive Weather Map
Tropical Storm Tracking
New forecast layout! Learn more

10-Day Weather Forecast

Advertisements
Track Severe Weather on mobile